Time;durP1;ratioP1;P1;durP2;ratioP2;P2;SDS_P1;SDS_P2;PMS_P1;PMS_P2;Temp;Humidity;BMP_temperature;BMP_pressure;BME280_temperature;BME280_humidity;BME280_pressure;Samples;Min_cycle;Max_cycle;Signal;HPM_P1;HPM_P2
2022/05/19 00:02:10;;;;;;;30.33;22.92;;;;;;;19.72;71.33;101549.91;4989814;28;20026;-91
2022/05/19 00:04:36;;;;;;;30.50;22.40;;;;;;;19.71;71.17;101541.94;4987800;28;20127;-90
2022/05/19 00:07:02;;;;;;;32.15;23.95;;;;;;;19.64;71.21;101541.53;4975709;28;20115;-91
2022/05/19 00:09:28;;;;;;;30.63;22.92;;;;;;;19.59;70.84;101517.56;4984125;28;20562;-92
2022/05/19 00:11:55;;;;;;;34.40;22.80;;;;;;;19.62;71.11;101528.16;4987171;28;20113;-91
2022/05/19 00:14:21;;;;;;;28.70;22.77;;;;;;;19.69;71.34;101528.56;4986941;28;20022;-92
2022/05/19 00:16:47;;;;;;;28.83;22.17;;;;;;;19.60;71.34;101532.78;4987981;28;20038;-93
2022/05/19 00:19:18;;;;;;;31.02;22.60;;;;;;;19.64;71.32;101528.88;4975715;28;20018;-91
2022/05/19 00:21:43;;;;;;;34.30;24.45;;;;;;;19.57;71.50;101524.09;4986598;28;20037;-92
2022/05/19 00:24:09;;;;;;;33.38;23.42;;;;;;;19.57;71.71;101524.94;4987772;28;20038;-91
2022/05/19 00:26:35;;;;;;;31.58;24.70;;;;;;;19.47;72.21;101523.91;4982607;28;20042;-91
2022/05/19 00:29:00;;;;;;;31.13;24.08;;;;;;;19.46;72.17;101526.75;4983293;28;20428;-91
2022/05/19 00:31:26;;;;;;;28.15;24.13;;;;;;;19.42;72.21;101513.47;4979191;28;20034;-90
2022/05/19 00:33:52;;;;;;;36.58;23.50;;;;;;;19.36;72.39;101515.81;4986214;28;20117;-90
2022/05/19 00:36:19;;;;;;;35.22;24.50;;;;;;;19.35;72.93;101519.47;4984626;28;20106;-91
2022/05/19 00:38:44;;;;;;;34.03;25.63;;;;;;;19.29;73.23;101511.84;4977050;28;20034;-89
2022/05/19 00:41:12;;;;;;;34.33;24.45;;;;;;;19.30;73.03;101505.47;4985912;28;20023;-92
2022/05/19 00:43:43;;;;;;;34.78;24.45;;;;;;;19.27;72.92;101505.69;4964002;28;20042;-92
2022/05/19 00:46:28;;;;;;;32.38;24.77;;;;;;;19.25;72.62;101500.44;4987304;28;20050;-92
2022/05/19 00:49:02;;;;;;;32.35;24.35;;;;;;;19.21;72.91;101490.00;4984630;28;20030;-92
2022/05/19 00:51:36;;;;;;;34.00;25.77;;;;;;;19.18;73.33;101499.16;4972609;28;20041;-93
2022/05/19 00:54:05;;;;;;;35.03;26.52;;;;;;;19.14;73.97;101498.56;4980818;28;20062;-92
2022/05/19 00:56:36;;;;;;;37.00;26.27;;;;;;;19.12;73.99;101491.56;4977872;28;20042;-91
2022/05/19 00:59:06;;;;;;;35.80;27.27;;;;;;;19.08;74.58;101485.53;4986581;28;20097;-93
2022/05/19 01:01:35;;;;;;;33.42;25.77;;;;;;;19.03;74.69;101492.28;4986383;28;20105;-92
2022/05/19 01:04:06;;;;;;;36.70;26.75;;;;;;;18.97;74.66;101488.19;4967734;28;20345;-93
2022/05/19 01:06:34;;;;;;;33.03;26.42;;;;;;;18.93;74.67;101484.00;4987548;28;20061;-92
2022/05/19 01:09:04;;;;;;;35.25;25.88;;;;;;;18.96;74.71;101483.78;4973489;28;20081;-91
2022/05/19 01:11:30;;;;;;;36.72;26.98;;;;;;;18.87;75.66;101466.44;4980457;28;20117;-91
2022/05/19 01:13:56;;;;;;;30.63;25.92;;;;;;;18.88;75.32;101465.47;4977305;28;20902;-92
2022/05/19 01:16:21;;;;;;;37.55;26.88;;;;;;;18.82;75.49;101462.41;4986999;28;20109;-92
2022/05/19 01:18:47;;;;;;;39.65;26.75;;;;;;;18.76;75.54;101463.69;4984968;28;20113;-91
2022/05/19 01:21:16;;;;;;;38.17;27.08;;;;;;;18.71;75.98;101455.09;4988575;28;20412;-93
2022/05/19 01:23:47;;;;;;;40.05;27.00;;;;;;;18.71;76.07;101462.34;4984543;28;20034;-92
2022/05/19 01:26:28;;;;;;;39.35;27.75;;;;;;;18.67;76.52;101457.13;4982277;28;20030;-91
2022/05/19 01:28:56;;;;;;;39.28;29.45;;;;;;;18.61;76.94;101452.22;4982311;28;20103;-89
2022/05/19 01:31:29;;;;;;;34.67;26.30;;;;;;;18.64;76.26;101453.78;4985246;28;20026;-90
2022/05/19 01:33:55;;;;;;;33.85;27.95;;;;;;;18.57;77.43;101452.56;4979617;28;20129;-91
2022/05/19 01:36:20;;;;;;;40.17;27.95;;;;;;;18.52;77.70;101452.03;4969432;28;20117;-91
2022/05/19 01:38:50;;;;;;;36.47;29.95;;;;;;;18.51;77.53;101444.91;4978304;28;20150;-90
2022/05/19 01:41:48;;;;;;;38.00;27.98;;;;;;;18.51;77.15;101436.81;4981856;28;20377;-91
2022/05/19 01:44:52;;;;;;;40.58;29.30;;;;;;;18.48;76.96;101439.78;4937706;28;20610;-90
2022/05/19 01:47:42;;;;;;;42.42;28.63;;;;;;;18.47;76.89;101438.03;4963153;28;20042;-91
2022/05/19 01:50:41;;;;;;;38.00;27.40;;;;;;;18.43;77.69;101445.47;4985523;28;20081;-91
2022/05/19 01:53:21;;;;;;;35.75;27.52;;;;;;;18.39;78.20;101438.59;4978676;28;20038;-91
2022/05/19 01:56:04;;;;;;;38.50;28.10;;;;;;;18.37;77.76;101435.16;4980219;28;20030;-91
2022/05/19 01:58:49;;;;;;;37.97;28.38;;;;;;;18.34;78.62;101430.00;4980165;28;20096;-91
2022/05/19 02:01:17;;;;;;;34.50;26.40;;;;;;;18.31;78.85;101428.41;4980394;28;20026;-91
2022/05/19 02:04:01;;;;;;;31.85;26.73;;;;;;;18.37;78.21;101427.09;4983552;28;20288;-90
2022/05/19 02:06:37;;;;;;;33.03;25.92;;;;;;;18.36;78.82;101434.31;4956408;28;20511;-91
2022/05/19 02:09:07;;;;;;;34.60;26.58;;;;;;;18.35;79.12;101429.91;4982272;28;20022;-90
2022/05/19 02:11:39;;;;;;;30.52;24.98;;;;;;;18.35;78.52;101432.59;4985722;28;20060;-89
2022/05/19 02:14:09;;;;;;;28.27;23.98;;;;;;;18.33;78.83;101421.06;4985384;28;20503;-90
2022/05/19 02:16:36;;;;;;;32.97;25.02;;;;;;;18.41;78.89;101429.44;4972925;28;20085;-90
2022/05/19 02:19:01;;;;;;;30.67;24.27;;;;;;;18.44;78.16;101430.19;4982117;28;20030;-90
2022/05/19 02:21:28;;;;;;;30.33;23.48;;;;;;;18.41;78.11;101424.03;4985390;28;20080;-90
2022/05/19 02:23:56;;;;;;;30.02;24.50;;;;;;;18.41;78.25;101412.41;4976080;28;20045;-91
2022/05/19 02:26:21;;;;;;;30.33;23.48;;;;;;;18.41;77.59;101407.88;4981698;28;20040;-90
2022/05/19 02:28:49;;;;;;;29.98;22.75;;;;;;;18.45;77.87;101423.81;4983265;28;20038;-90
2022/05/19 02:31:16;;;;;;;28.30;22.67;;;;;;;18.46;77.71;101417.44;4977603;28;20260;-90
2022/05/19 02:33:41;;;;;;;33.53;22.52;;;;;;;18.46;77.42;101418.31;4973307;28;20026;-90
2022/05/19 02:36:09;;;;;;;25.95;21.48;;;;;;;18.46;77.46;101423.69;4985483;28;20034;-90
2022/05/19 02:38:35;;;;;;;29.15;21.85;;;;;;;18.44;76.93;101419.41;4985922;28;20034;-91
2022/05/19 02:41:00;;;;;;;25.55;21.48;;;;;;;18.45;76.77;101421.13;4985611;28;20023;-92
2022/05/19 02:43:26;;;;;;;26.35;20.65;;;;;;;18.44;76.67;101427.50;4985948;28;20030;-92
2022/05/19 02:45:51;;;;;;;23.17;20.25;;;;;;;18.45;76.90;101431.91;4959601;28;20121;-90
2022/05/19 02:48:18;;;;;;;26.13;20.27;;;;;;;18.46;76.84;101439.00;4973983;28;20464;-90
2022/05/19 02:50:45;;;;;;;27.00;19.90;;;;;;;18.47;76.69;101440.72;4981718;28;20064;-90
2022/05/19 02:53:11;;;;;;;25.63;20.73;;;;;;;18.47;76.32;101432.63;4977492;28;20070;-90
2022/05/19 02:55:38;;;;;;;24.45;19.70;;;;;;;18.51;76.10;101442.22;4983241;28;20116;-89
2022/05/19 02:58:03;;;;;;;24.15;19.55;;;;;;;18.51;75.48;101447.59;4987048;28;20053;-91
2022/05/19 03:00:28;;;;;;;22.02;18.98;;;;;;;18.53;75.70;101446.53;4979217;28;20030;-91
2022/05/19 03:02:57;;;;;;;20.90;18.67;;;;;;;18.51;75.49;101440.38;4961475;28;20433;-90
2022/05/19 03:05:26;;;;;;;21.08;17.98;;;;;;;18.51;75.01;101447.59;4983919;28;20027;-90
2022/05/19 03:07:51;;;;;;;21.17;18.85;;;;;;;18.55;75.18;101441.00;4976826;28;20518;-91
2022/05/19 03:10:17;;;;;;;21.25;18.42;;;;;;;18.61;74.52;101446.81;4987404;28;20033;-90
2022/05/19 03:12:43;;;;;;;21.58;17.90;;;;;;;18.65;74.51;101459.09;4986705;28;20027;-91
2022/05/19 03:15:09;;;;;;;21.15;18.08;;;;;;;18.70;74.65;101466.00;4984851;28;20026;-91
2022/05/19 03:17:35;;;;;;;24.25;18.00;;;;;;;18.75;74.11;101474.63;4979269;28;20397;-92
2022/05/19 03:20:01;;;;;;;22.63;18.45;;;;;;;18.74;73.98;101543.00;4989975;28;20042;-90
2022/05/19 03:22:26;;;;;;;23.05;19.58;;;;;;;18.74;74.61;101540.31;4969864;28;20041;-89
2022/05/19 03:24:52;;;;;;;26.42;20.20;;;;;;;18.75;75.11;101559.06;4984923;28;20042;-90
2022/05/19 03:27:20;;;;;;;22.55;18.38;;;;;;;18.84;73.50;101579.97;4987539;28;20543;-90
2022/05/19 03:29:46;;;;;;;24.13;17.92;;;;;;;18.94;72.07;101623.31;4985398;28;20456;-91
2022/05/19 03:32:11;;;;;;;25.92;17.52;;;;;;;19.09;71.79;101587.09;4985296;28;20054;-91
2022/05/19 03:34:36;;;;;;;21.23;16.98;;;;;;;19.17;71.04;101564.91;4980804;28;20533;-92
2022/05/19 03:37:04;;;;;;;24.55;18.30;;;;;;;19.27;70.96;101581.28;4987091;28;20062;-93
2022/05/19 03:39:30;;;;;;;22.52;17.27;;;;;;;19.31;70.50;101589.03;4982158;28;20113;-92
2022/05/19 03:41:55;;;;;;;22.25;16.92;;;;;;;19.32;70.62;101574.56;4984074;28;20118;-92
2022/05/19 03:44:20;;;;;;;20.90;15.93;;;;;;;19.35;70.74;101595.03;4987700;28;20038;-92
2022/05/19 03:46:45;;;;;;;24.65;16.65;;;;;;;19.40;69.76;101603.69;4987950;28;21386;-91
2022/05/19 03:49:13;;;;;;;22.58;16.08;;;;;;;19.40;69.92;101588.34;4985925;28;20018;-91
2022/05/19 03:51:40;;;;;;;23.42;17.33;;;;;;;19.41;70.07;101625.16;4986314;28;20054;-92
2022/05/19 03:54:06;;;;;;;18.52;15.70;;;;;;;19.36;70.68;101608.44;4982072;28;20041;-91
2022/05/19 03:56:32;;;;;;;22.65;17.30;;;;;;;19.24;73.28;101576.97;4982174;28;20508;-91
2022/05/19 03:58:57;;;;;;;20.15;18.02;;;;;;;19.16;73.40;101574.84;4969824;28;20130;-91
2022/05/19 04:01:23;;;;;;;21.00;17.10;;;;;;;19.11;74.48;101574.34;4948918;28;20111;-91
2022/05/19 04:03:49;;;;;;;21.20;17.92;;;;;;;19.09;76.35;101572.72;4942969;28;20072;-92
2022/05/19 04:06:14;;;;;;;24.88;18.88;;;;;;;19.10;76.31;101571.75;4942264;29;20086;-91
2022/05/19 04:08:40;;;;;;;22.55;18.15;;;;;;;19.12;74.94;101578.75;4948999;29;20039;-92
2022/05/19 04:11:05;;;;;;;22.75;18.70;;;;;;;19.15;75.01;101594.72;4946091;28;20381;-90
2022/05/19 04:13:31;;;;;;;22.77;18.35;;;;;;;19.22;74.63;101595.13;4940908;28;20381;-92
2022/05/19 04:15:56;;;;;;;24.90;18.83;;;;;;;19.23;75.73;101595.97;4950625;29;20063;-91
2022/05/19 04:18:21;;;;;;;22.55;18.40;;;;;;;19.23;76.17;101598.66;4943505;29;20031;-92
2022/05/19 04:20:47;;;;;;;19.33;17.23;;;;;;;19.22;76.18;101594.25;4944715;28;20428;-92
2022/05/19 04:23:12;;;;;;;22.10;18.30;;;;;;;19.19;76.28;101589.97;4951921;29;20465;-92
2022/05/19 04:25:38;;;;;;;20.10;16.23;;;;;;;19.18;75.04;101593.63;4946073;28;20070;-92
2022/05/19 04:28:04;;;;;;;22.77;18.73;;;;;;;19.20;77.66;101605.19;4946474;28;20106;-91
2022/05/19 04:30:30;;;;;;;20.88;17.52;;;;;;;19.22;76.06;101600.50;4948207;28;20090;-90
2022/05/19 04:32:56;;;;;;;22.27;18.60;;;;;;;19.23;76.84;101591.47;4945881;29;21079;-91
2022/05/19 04:35:22;;;;;;;20.58;18.25;;;;;;;19.29;76.82;101599.09;4951229;28;20058;-93
2022/05/19 04:37:47;;;;;;;22.77;18.08;;;;;;;19.29;77.01;101582.88;4940525;28;20034;-92
2022/05/19 04:40:14;;;;;;;22.83;18.05;;;;;;;19.35;75.97;101584.25;4947642;29;20031;-93
2022/05/19 04:42:40;;;;;;;23.08;19.00;;;;;;;19.35;75.50;101582.44;4934785;28;20448;-91
2022/05/19 04:45:06;;;;;;;22.92;19.40;;;;;;;19.32;76.08;101588.06;4944302;28;20047;-94
2022/05/19 04:47:32;;;;;;;27.67;19.15;;;;;;;19.42;75.60;101599.00;4947876;28;20066;-90
2022/05/19 04:49:57;;;;;;;21.70;18.17;;;;;;;19.39;74.95;101589.28;4948149;28;20031;-91
2022/05/19 04:52:22;;;;;;;23.95;18.50;;;;;;;19.44;75.22;101585.38;4950672;28;20042;-93
2022/05/19 04:54:48;;;;;;;32.85;20.42;;;;;;;19.41;74.97;101587.34;4946087;29;20042;-92
2022/05/19 04:57:14;;;;;;;23.77;19.77;;;;;;;19.43;74.41;101592.63;4942272;28;20047;-91
2022/05/19 04:59:41;;;;;;;23.38;20.15;;;;;;;19.44;74.99;101580.88;4976993;28;20511;-93
2022/05/19 05:02:07;;;;;;;24.02;19.63;;;;;;;19.45;74.62;101581.72;4981853;28;20074;-92
2022/05/19 05:04:32;;;;;;;21.45;19.25;;;;;;;19.48;74.46;101598.56;4976756;28;20120;-93
2022/05/19 05:06:58;;;;;;;21.98;19.65;;;;;;;19.46;74.84;101597.78;4988263;28;20513;-91
2022/05/19 05:09:24;;;;;;;23.25;19.55;;;;;;;19.49;75.37;101596.72;4983670;28;20030;-91
2022/05/19 05:11:50;;;;;;;27.50;20.00;;;;;;;19.49;75.11;101597.56;4986777;28;20044;-91
2022/05/19 05:14:16;;;;;;;24.83;20.23;;;;;;;19.49;74.42;101581.38;4988189;28;20030;-91
2022/05/19 05:16:43;;;;;;;27.45;19.80;;;;;;;19.49;74.17;101575.97;4982251;28;20022;-92
2022/05/19 05:19:09;;;;;;;22.63;20.00;;;;;;;19.50;74.35;101566.03;4982338;28;20038;-90
2022/05/19 05:21:34;;;;;;;24.70;20.70;;;;;;;19.44;74.36;101553.00;4976767;28;20388;-91
2022/05/19 05:23:59;;;;;;;24.67;20.40;;;;;;;19.43;74.59;101562.94;4985038;28;20158;-91
2022/05/19 05:26:25;;;;;;;21.92;19.42;;;;;;;19.43;75.01;101565.63;4978941;28;20042;-93
2022/05/19 05:28:50;;;;;;;23.00;19.33;;;;;;;19.41;74.99;101544.16;4972919;28;20104;-93
2022/05/19 05:31:15;;;;;;;23.75;20.42;;;;;;;19.38;74.95;101555.19;4981280;28;20044;-90
2022/05/19 05:33:40;;;;;;;21.73;19.15;;;;;;;19.30;74.74;101554.06;4985316;28;20572;-92
2022/05/19 05:36:06;;;;;;;23.83;19.75;;;;;;;19.29;75.47;101553.19;4986529;28;20085;-92
2022/05/19 05:38:31;;;;;;;21.55;19.25;;;;;;;19.26;75.87;101558.81;4983118;28;20042;-94
2022/05/19 05:40:56;;;;;;;23.70;19.17;;;;;;;19.21;76.94;101571.81;4973290;28;20104;-91
2022/05/19 05:43:22;;;;;;;26.40;20.35;;;;;;;19.00;79.31;101549.16;4966139;28;20054;-92
2022/05/19 05:45:49;;;;;;;27.63;21.05;;;;;;;18.81;80.84;101545.16;4986692;28;20037;-90
2022/05/19 05:48:15;;;;;;;28.33;22.85;;;;;;;18.38;85.39;101509.66;4986285;28;20034;-91
2022/05/19 05:50:41;;;;;;;29.30;23.58;;;;;;;18.02;87.17;101513.19;4978592;28;20567;-90
2022/05/19 05:53:07;;;;;;;27.58;24.38;;;;;;;17.68;89.20;101539.75;4988392;28;20034;-93
2022/05/19 05:55:35;;;;;;;28.27;25.20;;;;;;;17.58;90.58;101525.22;4978547;28;20511;-92
2022/05/19 05:58:04;;;;;;;28.73;25.63;;;;;;;17.47;91.39;101511.63;4972786;28;20445;-91
2022/05/19 06:00:30;;;;;;;30.40;25.48;;;;;;;17.32;93.51;101492.91;4978066;28;20029;-91
2022/05/19 06:02:56;;;;;;;30.10;25.92;;;;;;;17.34;92.71;101466.75;4981106;28;20073;-91
2022/05/19 06:05:21;;;;;;;32.67;26.35;;;;;;;17.31;94.37;101490.34;4965814;28;20046;-91
2022/05/19 06:07:47;;;;;;;31.25;27.27;;;;;;;17.32;94.54;101484.84;4982827;28;20026;-90
2022/05/19 06:10:13;;;;;;;28.98;26.00;;;;;;;17.31;94.34;101491.19;4981271;28;20037;-90
2022/05/19 06:12:39;;;;;;;30.05;24.65;;;;;;;17.20;94.29;101469.53;4982839;28;20458;-92
2022/05/19 06:15:05;;;;;;;31.17;24.20;;;;;;;17.18;93.99;101488.47;4985456;28;20121;-89
2022/05/19 06:17:30;;;;;;;32.03;25.30;;;;;;;17.09;94.78;101496.28;4983903;28;20069;-89
2022/05/19 06:19:56;;;;;;;35.40;27.40;;;;;;;17.06;96.70;101493.84;4980643;28;20226;-90
2022/05/19 06:22:24;;;;;;;26.70;22.25;;;;;;;17.05;94.85;101487.56;4980111;28;20026;-92
2022/05/19 06:24:51;;;;;;;28.50;25.05;;;;;;;17.05;97.86;101484.88;4986126;28;20026;-93
2022/05/19 06:27:16;;;;;;;27.35;22.33;;;;;;;17.09;97.18;101493.59;4988773;28;20030;-91
2022/05/19 06:29:42;;;;;;;30.90;25.38;;;;;;;17.16;98.52;101481.47;4984631;28;20093;-93
2022/05/19 06:32:08;;;;;;;23.05;20.02;;;;;;;17.19;97.11;101462.44;4969005;28;20030;-92
2022/05/19 06:34:33;;;;;;;23.17;20.67;;;;;;;17.18;97.24;101458.88;4982318;28;20064;-92
2022/05/19 06:36:59;;;;;;;25.98;23.33;;;;;;;17.20;98.09;101453.41;4990344;28;20026;-93
2022/05/19 06:39:24;;;;;;;33.42;25.73;;;;;;;17.25;98.01;101453.94;4987139;28;20468;-90
2022/05/19 06:42:01;;;;;;;28.38;25.38;;;;;;;17.41;98.85;101465.34;4990481;28;20714;-92
2022/05/19 06:44:36;;;;;;;29.92;24.35;;;;;;;17.59;98.63;101483.88;4988184;28;20360;-94
2022/05/19 06:47:09;;;;;;;28.70;24.27;;;;;;;17.66;98.24;101482.47;4994347;28;20110;-94
2022/05/19 06:49:35;;;;;;;25.05;21.98;;;;;;;17.64;97.83;101476.31;4990586;28;20534;-88
2022/05/19 06:52:00;;;;;;;28.25;23.42;;;;;;;17.79;99.10;101487.88;4986543;28;20038;-93
2022/05/19 06:54:25;;;;;;;27.60;24.50;;;;;;;17.83;98.84;101495.63;4997147;28;20036;-93
2022/05/19 06:56:51;;;;;;;26.83;23.02;;;;;;;17.92;98.33;101494.97;4977166;28;20051;-92
2022/05/19 06:59:16;;;;;;;29.20;24.67;;;;;;;18.01;99.31;101496.16;4995948;28;20050;-93
2022/05/19 07:01:43;;;;;;;27.05;23.98;;;;;;;18.07;99.80;101487.63;4992135;28;20053;-94
2022/05/19 07:04:09;;;;;;;22.98;19.17;;;;;;;18.11;96.83;101490.97;4997027;28;20489;-94
2022/05/19 07:06:34;;;;;;;21.92;17.73;;;;;;;18.02;96.56;101476.34;4985286;28;20084;-90
2022/05/19 07:08:59;;;;;;;20.10;16.80;;;;;;;18.10;94.58;101486.53;4979438;28;20035;-94
2022/05/19 07:11:24;;;;;;;19.60;17.50;;;;;;;18.17;95.54;101468.97;4984614;28;20369;-92
2022/05/19 07:13:59;;;;;;;22.33;18.00;;;;;;;18.28;92.05;101473.59;4982512;28;20039;-93
2022/05/19 07:16:24;;;;;;;21.88;19.65;;;;;;;18.30;90.42;101455.44;4994548;28;20025;-94
2022/05/19 07:18:50;;;;;;;24.63;20.45;;;;;;;18.48;89.82;101447.88;4990724;28;20281;-92
2022/05/19 07:21:18;;;;;;;21.45;18.75;;;;;;;18.76;90.15;101427.78;4989701;28;20062;-91
2022/05/19 07:23:46;;;;;;;22.38;19.83;;;;;;;19.00;89.37;101428.59;4989757;28;20027;-91
2022/05/19 07:26:11;;;;;;;24.30;21.90;;;;;;;19.26;89.94;101437.38;4980733;28;20121;-91
2022/05/19 07:28:36;;;;;;;24.77;22.20;;;;;;;19.54;89.36;101448.72;4987769;28;20446;-92
2022/05/19 07:31:02;;;;;;;25.40;22.70;;;;;;;19.76;87.84;101481.16;4984405;28;20608;-92
2022/05/19 07:33:28;;;;;;;24.70;21.40;;;;;;;19.93;86.29;101489.75;4995486;28;20036;-92
2022/05/19 07:35:54;;;;;;;24.73;21.83;;;;;;;19.96;82.47;101481.41;4987447;28;20109;-90
2022/05/19 07:38:19;;;;;;;25.08;21.65;;;;;;;19.95;84.04;101482.41;4993089;28;20124;-92
2022/05/19 07:40:45;;;;;;;23.17;20.73;;;;;;;19.83;81.86;101474.28;4997125;28;20502;-92
2022/05/19 07:45:54;;;;;;;24.30;21.90;;;;;;;19.74;81.35;101469.63;4973990;28;20444;-94
2022/05/19 07:48:20;;;;;;;24.80;22.10;;;;;;;19.81;80.77;101484.34;4984756;28;20026;-91
2022/05/19 07:50:45;;;;;;;23.90;21.52;;;;;;;19.93;81.07;101478.94;4992306;28;20404;-95
2022/05/19 07:53:11;;;;;;;25.80;22.90;;;;;;;20.16;81.54;101483.38;4982211;28;20085;-94
2022/05/19 07:55:36;;;;;;;25.58;22.95;;;;;;;20.66;80.53;101467.56;4978401;28;20043;-93
2022/05/19 07:58:03;;;;;;;23.60;20.98;;;;;;;21.54;77.51;101460.97;4987934;28;20043;-94
2022/05/19 08:00:29;;;;;;;23.58;20.98;;;;;;;22.24;73.74;101453.84;5000621;28;20034;-94
2022/05/19 08:02:54;;;;;;;21.85;19.45;;;;;;;22.84;68.89;101469.09;4978563;28;20019;-90
2022/05/19 08:05:20;;;;;;;21.17;18.92;;;;;;;23.41;69.60;101454.75;4985192;28;20034;-90
2022/05/19 08:07:45;;;;;;;20.58;18.30;;;;;;;24.22;64.55;101445.03;4980873;28;20104;-93
2022/05/19 08:10:26;;;;;;;19.25;17.13;;;;;;;24.99;61.05;101453.63;4988554;28;20088;-92
2022/05/19 08:15:38;;;;;;;21.60;16.50;;;;;;;26.03;55.84;101459.13;4994882;28;20058;-94
2022/05/19 08:18:09;;;;;;;16.88;15.15;;;;;;;26.78;55.35;101461.94;4985509;28;20022;-90
2022/05/19 08:20:38;;;;;;;16.10;14.30;;;;;;;27.64;53.30;101469.59;4986790;28;20031;-96
2022/05/19 08:23:04;;;;;;;19.17;15.32;;;;;;;28.20;49.21;101480.56;4998601;28;20109;-93
2022/05/19 08:25:29;;;;;;;16.92;14.88;;;;;;;28.60;53.05;101471.31;4986752;28;20103;-94
2022/05/19 08:27:56;;;;;;;14.23;12.82;;;;;;;29.03;48.81;101474.44;4998236;28;20090;-95
2022/05/19 08:30:22;;;;;;;15.30;13.55;;;;;;;29.44;49.59;101477.66;4992215;28;20118;-91
2022/05/19 08:32:47;;;;;;;17.23;12.40;;;;;;;30.28;46.61;101471.94;4990214;28;20090;-94
2022/05/19 08:35:13;;;;;;;15.30;12.10;;;;;;;30.97;44.64;101475.03;4989120;28;20583;-91
2022/05/19 08:37:38;;;;;;;13.15;10.75;;;;;;;31.52;42.31;101471.72;4979679;28;20539;-94
2022/05/19 08:40:04;;;;;;;14.20;10.95;;;;;;;32.03;40.32;101472.28;4982512;28;20027;-93
2022/05/19 08:42:33;;;;;;;12.50;10.90;;;;;;;32.61;39.53;101469.16;4993658;28;20153;-93
2022/05/19 08:45:02;;;;;;;13.25;10.93;;;;;;;33.01;40.22;101463.72;4993875;28;20409;-95
2022/05/19 08:47:33;;;;;;;14.13;10.93;;;;;;;33.08;36.55;101467.34;4986464;28;20037;-94
2022/05/19 08:50:08;;;;;;;11.35;9.63;;;;;;;32.93;37.44;101460.09;5003363;28;20026;-95
2022/05/19 08:52:39;;;;;;;12.23;9.27;;;;;;;33.24;40.22;101453.13;5005448;28;20053;-96
2022/05/19 08:55:06;;;;;;;9.98;8.88;;;;;;;33.47;35.00;101452.69;5002501;28;20049;-95
2022/05/19 08:57:39;;;;;;;11.52;8.18;;;;;;;33.37;36.73;101455.00;5002736;28;20057;-95
2022/05/19 09:00:11;;;;;;;10.23;8.10;;;;;;;33.18;35.75;101452.03;4980147;28;20038;-95
2022/05/19 09:02:44;;;;;;;8.85;6.93;;;;;;;33.66;36.12;101448.22;4989520;28;20030;-95
2022/05/19 09:05:35;;;;;;;8.88;7.40;;;;;;;34.37;35.08;101439.88;4996929;28;20034;-95
2022/05/19 09:08:29;;;;;;;11.23;6.38;;;;;;;34.53;33.89;101433.03;4997152;28;20026;-96
2022/05/19 09:11:10;;;;;;;7.72;5.82;;;;;;;34.56;35.46;101440.84;4983177;28;20039;-95
2022/05/19 09:13:42;;;;;;;9.90;6.15;;;;;;;33.56;33.81;101432.06;4999142;28;20005;-96
2022/05/19 09:16:15;;;;;;;7.22;5.50;;;;;;;32.75;34.91;101423.16;5006695;28;20041;-94
2022/05/19 09:18:47;;;;;;;8.50;5.85;;;;;;;32.26;35.57;101429.78;5010496;28;20503;-96
2022/05/19 09:21:13;;;;;;;8.85;5.28;;;;;;;31.61;36.41;101423.75;5009126;28;20479;-95
2022/05/19 09:23:41;;;;;;;7.15;5.78;;;;;;;31.29;37.97;101425.22;5013723;28;20026;-94
2022/05/19 09:26:42;;;;;;;8.68;6.25;;;;;;;31.87;38.56;101417.56;5006231;28;20030;-95
2022/05/19 09:29:12;;;;;;;6.85;5.50;;;;;;;31.92;36.80;101412.28;5012762;28;20003;-95
2022/05/19 09:31:46;;;;;;;10.18;5.72;;;;;;;32.53;38.65;101411.47;5010634;28;20082;-95
2022/05/19 09:34:11;;;;;;;10.10;5.93;;;;;;;32.79;35.30;101414.25;5010646;28;20038;-95
2022/05/19 09:36:52;;;;;;;9.65;5.50;;;;;;;32.91;34.59;101417.22;4987616;28;20026;-95
2022/05/19 09:39:18;;;;;;;8.15;5.53;;;;;;;33.03;35.60;101412.81;4994684;28;20018;-94
2022/05/19 09:41:55;;;;;;;6.32;5.13;;;;;;;33.10;35.47;101408.13;5003695;28;20033;-94
2022/05/19 09:44:29;;;;;;;5.88;4.85;;;;;;;33.17;35.32;101413.66;5006061;28;20034;-95
2022/05/19 09:46:54;;;;;;;7.50;4.60;;;;;;;34.45;33.19;101411.13;4979121;28;20065;-96
2022/05/19 09:49:25;;;;;;;8.90;4.57;;;;;;;35.64;31.85;101415.69;5004190;28;20003;-93
2022/05/19 09:51:51;;;;;;;5.25;4.45;;;;;;;35.78;29.83;101426.59;4994647;28;20109;-94
2022/05/19 09:54:22;;;;;;;6.75;4.63;;;;;;;34.75;31.04;101427.97;5017155;22;20088;-96
2022/05/19 09:56:53;;;;;;;7.88;4.93;;;;;;;33.67;31.49;101408.50;5019835;28;20303;-95
2022/05/19 09:59:32;;;;;;;7.20;4.78;;;;;;;33.29;33.31;101420.22;5011156;28;20029;-94
2022/05/19 10:02:16;;;;;;;9.95;4.80;;;;;;;33.00;33.58;101399.44;5017118;28;20041;-95
2022/05/19 10:04:52;;;;;;;5.65;4.28;;;;;;;33.04;31.59;101406.22;5000446;28;20030;-94
2022/05/19 10:07:24;;;;;;;7.82;4.25;;;;;;;32.51;32.33;101399.78;5003118;28;20408;-93
2022/05/19 10:09:51;;;;;;;6.30;4.63;;;;;;;32.06;32.62;101393.91;4991985;28;20100;-94
2022/05/19 10:12:28;;;;;;;6.82;4.18;;;;;;;31.85;34.45;101381.13;5005323;28;20021;-93
2022/05/19 10:15:08;;;;;;;5.88;4.65;;;;;;;31.54;34.39;101373.34;5005554;28;20064;-92
2022/05/19 10:17:33;;;;;;;6.15;4.70;;;;;;;31.42;34.15;101367.53;5004227;28;20060;-93
2022/05/19 10:20:11;;;;;;;8.15;5.00;;;;;;;31.20;34.28;101367.59;4999789;28;20540;-95
2022/05/19 10:22:42;;;;;;;6.72;3.80;;;;;;;31.27;34.82;101356.66;4990000;28;20066;-96
2022/05/19 10:25:14;;;;;;;6.35;4.32;;;;;;;31.77;34.57;101340.84;4991221;28;20112;-95
2022/05/19 10:31:22;;;;;;;5.70;3.78;;;;;;;33.29;32.48;101358.69;5004060;28;20260;-94
2022/05/19 10:34:20;;;;;;;6.05;4.00;;;;;;;33.65;31.13;101359.03;5011042;28;20053;-96
2022/05/19 10:37:12;;;;;;;7.80;3.97;;;;;;;33.85;29.84;101360.84;5007327;28;20037;-95
2022/05/19 10:39:59;;;;;;;7.40;4.00;;;;;;;33.15;30.62;101355.06;5011423;28;20034;-94
2022/05/19 10:42:41;;;;;;;4.32;3.63;;;;;;;32.49;32.09;101353.19;5013968;28;20283;-95
2022/05/19 10:45:17;;;;;;;5.93;4.30;;;;;;;31.89;32.10;101357.63;5014105;28;20053;-95
2022/05/19 10:47:49;;;;;;;4.30;3.50;;;;;;;32.31;32.46;101353.72;5004999;28;20030;-93
2022/05/19 10:53:07;;;;;;;7.38;3.70;;;;;;;35.43;29.04;101360.75;4999180;28;20054;-95
2022/05/19 10:55:38;;;;;;;6.00;3.58;;;;;;;36.59;28.30;101345.81;4990748;28;20034;-93
2022/05/19 10:58:22;;;;;;;6.95;3.58;;;;;;;36.61;26.06;101331.69;4995370;28;20214;-96
2022/05/19 11:00:59;;;;;;;4.63;3.30;;;;;;;36.26;28.03;101348.22;4996816;28;20030;-95
2022/05/19 11:03:49;;;;;;;6.55;3.38;;;;;;;36.19;29.13;101347.47;4977233;28;20106;-93
2022/05/19 11:06:41;;;;;;;4.20;3.75;;;;;;;36.02;28.92;101342.59;4987134;28;20050;-96
2022/05/19 11:09:13;;;;;;;8.23;4.28;;;;;;;35.17;28.36;101335.06;4989450;28;20058;-93
2022/05/19 11:12:11;;;;;;;4.95;4.03;;;;;;;34.33;29.29;101332.78;4979982;28;20110;-94
2022/05/19 11:15:01;;;;;;;3.83;3.47;;;;;;;33.53;31.55;101315.78;4977313;28;20502;-92
2022/05/19 11:17:45;;;;;;;4.63;3.90;;;;;;;32.77;33.12;101314.38;4997117;28;20052;-91
2022/05/19 11:20:25;;;;;;;8.10;3.78;;;;;;;31.99;33.33;101325.06;4991841;28;20034;-91
2022/05/19 11:23:01;;;;;;;6.10;4.28;;;;;;;31.21;34.59;101324.44;4988890;28;20385;-95
2022/05/19 11:28:38;;;;;;;7.00;4.00;;;;;;;30.12;36.47;101343.94;4997473;28;20073;-96
2022/05/19 11:31:11;;;;;;;6.82;5.70;;;;;;;29.53;37.90;101355.84;4982647;28;20026;-93
2022/05/19 11:33:39;;;;;;;7.88;3.88;;;;;;;29.21;39.45;101370.78;4991963;28;20481;-95
2022/05/19 11:36:18;;;;;;;8.55;4.70;;;;;;;28.77;38.46;101360.56;4988642;28;20030;-95
2022/05/19 11:39:08;;;;;;;6.95;4.57;;;;;;;28.43;39.19;101384.81;4982517;28;20026;-93